createdAt,value
2022-08-22T00:01:15.290Z,2.72
2022-08-22T00:02:47.978Z,1.45
2022-08-22T00:02:49.632Z,1.63
2022-08-22T00:03:08.939Z,2.20
2022-08-22T00:03:09.131Z,2.10
2022-08-22T00:03:54.992Z,2.67
2022-08-22T00:06:31.818Z,2.65
2022-08-22T00:09:12.011Z,2.83
2022-08-22T00:12:02.664Z,2.80
2022-08-22T00:14:38.425Z,2.97
2022-08-22T00:17:19.533Z,2.78
2022-08-22T00:19:52.767Z,3.33
2022-08-22T00:22:26.972Z,2.97
2022-08-22T00:25:04.082Z,2.70
2022-08-22T00:27:44.908Z,3.00
2022-08-22T00:30:16.746Z,2.83
2022-08-22T00:32:52.059Z,3.17
2022-08-22T00:35:24.550Z,3.05
2022-08-22T00:38:02.799Z,3.03
2022-08-22T00:40:46.162Z,3.30
2022-08-22T00:43:40.375Z,3.40
2022-08-22T00:46:27.575Z,3.38
2022-08-22T00:49:15.289Z,3.22
2022-08-22T00:52:14.362Z,3.53
2022-08-22T00:55:04.546Z,3.17
2022-08-22T00:57:52.104Z,3.20
2022-08-22T01:00:24.656Z,3.65
2022-08-22T01:03:21.037Z,3.22
2022-08-22T01:06:04.425Z,3.55
2022-08-22T01:08:50.928Z,3.10
2022-08-22T01:11:36.374Z,3.33
2022-08-22T01:14:34.266Z,3.70
2022-08-22T01:17:22.001Z,3.15
2022-08-22T01:20:44.681Z,3.75
2022-08-22T01:23:48.866Z,3.45
2022-08-22T01:26:47.589Z,3.35
2022-08-22T01:29:51.011Z,3.05
2022-08-22T01:32:57.991Z,3.30
2022-08-22T01:35:37.871Z,3.17
2022-08-22T01:38:26.871Z,3.97
2022-08-22T01:41:26.174Z,3.20
2022-08-22T01:44:11.353Z,3.55
2022-08-22T01:46:50.808Z,3.60
2022-08-22T01:49:25.490Z,3.60
2022-08-22T01:52:00.997Z,3.40
2022-08-22T01:54:42.770Z,3.47
2022-08-22T01:57:12.956Z,3.50
2022-08-22T01:59:44.480Z,3.28
2022-08-22T02:02:41.307Z,3.60
2022-08-22T02:05:20.536Z,3.85
2022-08-22T02:07:57.662Z,3.90
2022-08-22T02:10:42.484Z,3.65
2022-08-22T02:13:28.171Z,3.67
2022-08-22T02:16:07.701Z,3.97
2022-08-22T02:18:52.151Z,3.22
2022-08-22T02:21:27.293Z,4.10
2022-08-22T02:24:02.749Z,3.38
2022-08-22T02:26:44.409Z,3.47
2022-08-22T02:29:16.792Z,3.53
2022-08-22T02:31:53.470Z,3.70
2022-08-22T02:34:32.026Z,3.92
2022-08-22T02:37:08.461Z,4.05
2022-08-22T02:39:44.188Z,3.80
2022-08-22T02:42:20.138Z,3.55
2022-08-22T02:45:04.917Z,3.85
2022-08-22T02:47:41.119Z,3.75
2022-08-22T02:50:18.629Z,3.90
2022-08-22T02:52:58.757Z,3.85
2022-08-22T02:55:43.602Z,3.65
2022-08-22T02:58:20.909Z,3.55
2022-08-22T03:01:10.071Z,4.22
2022-08-22T03:03:41.953Z,4.20
2022-08-22T03:06:32.893Z,3.70
2022-08-22T03:09:08.713Z,4.25
2022-08-22T03:11:41.933Z,4.10
2022-08-22T03:14:17.409Z,4.00
2022-08-22T03:19:24.537Z,3.67
2022-08-22T03:21:59.319Z,3.72
2022-08-22T03:24:36.656Z,4.28
2022-08-22T03:27:13.343Z,4.13
2022-08-22T03:30:02.407Z,4.28
2022-08-22T03:32:50.183Z,4.37
2022-08-22T03:35:50.576Z,4.25
2022-08-22T03:38:24.800Z,4.78
2022-08-22T03:41:10.358Z,4.43
2022-08-22T03:44:04.083Z,4.30
2022-08-22T03:47:10.851Z,4.57
2022-08-22T03:53:02.342Z,4.50
2022-08-22T03:55:49.990Z,4.45
2022-08-22T03:58:42.687Z,4.95
2022-08-22T04:01:38.048Z,4.68
2022-08-22T04:04:38.619Z,4.97
2022-08-22T04:07:35.199Z,5.05
2022-08-22T04:10:39.005Z,5.40
2022-08-22T04:13:43.293Z,5.50
2022-08-22T04:16:48.831Z,5.28
2022-08-22T04:19:32.077Z,4.82
2022-08-22T04:22:23.661Z,5.15
2022-08-22T04:24:56.807Z,5.50
2022-08-22T04:27:29.854Z,5.75
2022-08-22T04:30:06.715Z,6.05
2022-08-22T04:32:42.526Z,5.43
2022-08-22T04:35:18.747Z,5.80
2022-08-22T04:37:53.312Z,5.35
2022-08-22T04:40:26.793Z,5.57
2022-08-22T04:43:00.197Z,6.00
2022-08-22T04:45:37.745Z,6.20
2022-08-22T04:48:12.428Z,6.43
2022-08-22T04:50:48.108Z,5.97
2022-08-22T04:53:28.992Z,5.57
2022-08-22T04:56:08.050Z,5.88
2022-08-22T04:58:47.657Z,5.75
2022-08-22T05:01:19.167Z,5.97
2022-08-22T05:03:55.691Z,6.05
2022-08-22T05:06:29.548Z,5.93
2022-08-22T05:09:04.087Z,5.68
2022-08-22T05:11:35.540Z,6.32
2022-08-22T05:14:10.109Z,5.30
2022-08-22T05:16:42.891Z,6.10
2022-08-22T05:19:22.983Z,6.20
2022-08-22T05:21:57.037Z,5.88
2022-08-22T05:24:31.100Z,6.32
2022-08-22T05:27:09.213Z,5.68
2022-08-22T05:29:40.953Z,6.55
2022-08-22T05:32:17.545Z,6.43
2022-08-22T05:34:48.802Z,6.30
2022-08-22T05:37:24.303Z,5.85
2022-08-22T05:39:57.742Z,6.55
2022-08-22T05:42:29.481Z,5.93
2022-08-22T05:44:58.460Z,6.15
2022-08-22T05:47:36.106Z,6.70
2022-08-22T05:50:09.669Z,6.03
2022-08-22T05:52:51.920Z,6.95
2022-08-22T05:55:28.678Z,6.50
2022-08-22T05:58:27.549Z,6.13
2022-08-22T06:01:20.302Z,5.70
2022-08-22T06:03:58.403Z,5.85
2022-08-22T06:06:30.789Z,5.63
2022-08-22T06:09:05.317Z,6.07
2022-08-22T06:11:41.541Z,5.90
2022-08-22T06:14:28.996Z,5.68
2022-08-22T06:17:05.293Z,5.00
2022-08-22T06:19:38.345Z,4.90
2022-08-22T06:22:09.142Z,3.90
2022-08-22T06:24:41.092Z,4.07
2022-08-22T06:27:13.880Z,4.55
2022-08-22T06:29:48.863Z,4.80
2022-08-22T06:35:25.530Z,5.20
2022-08-22T06:38:00.580Z,5.30
2022-08-22T06:42:59.812Z,5.55
2022-08-22T06:45:31.900Z,5.05
2022-08-22T06:48:14.494Z,5.10
2022-08-22T06:50:46.425Z,5.18
2022-08-22T06:53:19.528Z,5.13
2022-08-22T06:55:50.306Z,5.38
2022-08-22T06:58:22.012Z,5.10
2022-08-22T07:01:05.691Z,5.10
2022-08-22T07:03:44.864Z,4.70
2022-08-22T07:06:17.109Z,5.10
2022-08-22T07:08:47.512Z,5.45
2022-08-22T07:11:21.698Z,5.28
2022-08-22T07:13:57.526Z,5.32
2022-08-22T07:16:32.757Z,4.70
2022-08-22T07:19:01.903Z,4.60
2022-08-22T07:21:32.893Z,4.72
2022-08-22T07:24:06.472Z,4.78
2022-08-22T07:26:44.207Z,5.15
2022-08-22T07:29:22.018Z,5.28
2022-08-22T07:32:07.650Z,5.00
2022-08-22T07:34:50.275Z,5.03
2022-08-22T07:37:29.479Z,4.82
2022-08-22T07:40:12.962Z,4.60
2022-08-22T07:42:48.786Z,5.22
2022-08-22T07:45:22.197Z,5.30
2022-08-22T07:48:04.474Z,4.90
2022-08-22T07:50:39.328Z,4.97
2022-08-22T07:53:18.990Z,5.20
2022-08-22T07:55:50.395Z,5.18
2022-08-22T07:58:20.752Z,4.82
2022-08-22T08:00:50.356Z,4.85
2022-08-22T08:03:22.728Z,4.78
2022-08-22T08:05:51.510Z,5.20
2022-08-22T08:08:24.811Z,4.88
2022-08-22T08:10:57.209Z,4.72
2022-08-22T08:13:30.520Z,4.90
2022-08-22T08:16:00.557Z,4.68
2022-08-22T08:18:33.852Z,5.40
2022-08-22T08:21:06.145Z,6.25
2022-08-22T08:23:39.715Z,8.43
2022-08-22T08:26:15.785Z,4.93
2022-08-22T08:28:49.657Z,4.72
2022-08-22T08:31:24.827Z,4.50
2022-08-22T08:34:01.346Z,4.35
2022-08-22T08:36:40.499Z,5.68
2022-08-22T08:39:20.476Z,4.57
2022-08-22T08:42:24.221Z,3.42
2022-08-22T08:45:21.929Z,5.35
2022-08-22T08:48:09.930Z,3.65
2022-08-22T08:50:54.187Z,4.50
2022-08-22T08:53:58.029Z,4.05
2022-08-22T08:56:36.627Z,4.50
2022-08-22T08:59:19.053Z,4.45
2022-08-22T09:02:09.371Z,4.30
2022-08-22T09:05:14.636Z,3.65
2022-08-22T09:08:00.780Z,3.40
2022-08-22T09:10:59.872Z,4.15
2022-08-22T09:13:49.846Z,5.43
2022-08-22T09:16:35.990Z,3.95
2022-08-22T09:19:28.936Z,4.50
2022-08-22T09:22:23.292Z,7.07
2022-08-22T09:25:11.710Z,4.38
2022-08-22T09:27:52.694Z,3.42
2022-08-22T09:30:28.530Z,3.13
2022-08-22T09:33:03.479Z,3.60
2022-08-22T09:38:29.120Z,3.45
2022-08-22T09:41:10.161Z,3.90
2022-08-22T09:43:44.749Z,3.90
2022-08-22T09:46:21.388Z,10.63
2022-08-22T09:49:06.479Z,3.78
2022-08-22T09:51:40.822Z,3.17
2022-08-22T09:54:24.357Z,2.97
2022-08-22T09:57:17.272Z,2.85
2022-08-22T10:00:02.055Z,2.53
2022-08-22T10:02:43.486Z,2.58
2022-08-22T10:05:40.324Z,2.58
2022-08-22T10:08:20.214Z,2.90
2022-08-22T10:11:09.306Z,4.55
2022-08-22T10:13:57.274Z,3.58
2022-08-22T10:16:53.077Z,7.57
2022-08-22T10:19:28.686Z,3.20
2022-08-22T10:22:29.998Z,2.53
2022-08-22T10:25:09.157Z,2.38
2022-08-22T10:27:51.902Z,2.13
2022-08-22T10:30:23.068Z,2.20
2022-08-22T10:33:00.928Z,2.10
2022-08-22T10:35:33.931Z,3.30
2022-08-22T10:38:12.877Z,2.08
2022-08-22T10:40:53.054Z,1.92
2022-08-22T10:43:32.698Z,2.10
2022-08-22T10:46:06.770Z,2.72
2022-08-22T10:48:44.677Z,2.53
2022-08-22T10:51:23.374Z,2.03
2022-08-22T10:54:02.223Z,2.05
2022-08-22T10:56:39.312Z,2.00
2022-08-22T10:59:22.876Z,2.20
2022-08-22T11:01:58.892Z,1.90
2022-08-22T11:04:43.503Z,2.08
2022-08-22T11:10:00.573Z,3.30
2022-08-22T11:12:36.524Z,1.88
2022-08-22T11:15:28.363Z,1.60
2022-08-22T11:18:30.392Z,1.85
2022-08-22T11:21:03.397Z,1.77
2022-08-22T11:23:42.634Z,1.80
2022-08-22T11:26:35.845Z,1.60
2022-08-22T11:29:33.004Z,1.65
2022-08-22T11:32:11.166Z,2.58
2022-08-22T11:34:50.937Z,2.00
2022-08-22T11:37:45.206Z,1.67
2022-08-22T11:40:29.280Z,3.20
2022-08-22T11:43:16.399Z,8.38
2022-08-22T11:45:50.635Z,2.10
2022-08-22T11:48:28.534Z,1.88
2022-08-22T11:51:13.214Z,2.10
2022-08-22T11:53:48.309Z,1.80
2022-08-22T11:56:24.550Z,1.58
2022-08-22T11:59:02.078Z,3.13
2022-08-22T12:01:39.365Z,2.95
2022-08-22T12:04:17.405Z,2.00
2022-08-22T12:07:02.053Z,4.03
2022-08-22T12:09:50.753Z,1.98
2022-08-22T12:12:36.807Z,2.00
2022-08-22T12:15:17.065Z,1.70
2022-08-22T12:18:20.051Z,1.70
2022-08-22T12:21:12.575Z,1.63
2022-08-22T12:24:11.104Z,2.90
2022-08-22T12:26:57.708Z,2.10
2022-08-22T12:29:40.002Z,2.58
2022-08-22T12:33:04.162Z,4.03
2022-08-22T12:35:43.105Z,2.30
2022-08-22T12:38:36.073Z,2.10
2022-08-22T12:41:48.188Z,1.75
2022-08-22T12:44:34.284Z,1.88
2022-08-22T12:47:18.149Z,1.70
2022-08-22T12:50:14.052Z,1.80
2022-08-22T12:52:57.186Z,1.90
2022-08-22T12:55:43.891Z,1.90
2022-08-22T12:58:22.384Z,1.58
2022-08-22T13:00:52.609Z,1.60
2022-08-22T13:03:25.995Z,2.05
2022-08-22T13:06:00.662Z,2.00
2022-08-22T13:08:32.085Z,1.80
2022-08-22T13:11:02.977Z,2.10
2022-08-22T13:13:40.821Z,1.73
2022-08-22T13:16:12.225Z,1.83
2022-08-22T13:18:53.423Z,1.92
2022-08-22T13:21:32.044Z,1.95
2022-08-22T13:24:10.502Z,1.80
2022-08-22T13:26:49.124Z,1.83
2022-08-22T13:29:26.145Z,1.80
2022-08-22T13:32:01.458Z,1.70
2022-08-22T13:34:40.551Z,2.03
2022-08-22T13:37:17.360Z,1.98
2022-08-22T13:39:52.630Z,1.80
2022-08-22T13:42:29.926Z,1.70
2022-08-22T13:45:05.063Z,1.73
2022-08-22T13:47:39.749Z,2.00
2022-08-22T13:50:14.622Z,1.83
2022-08-22T13:52:52.453Z,1.90
2022-08-22T13:55:35.131Z,1.90
2022-08-22T13:58:13.529Z,1.98
2022-08-22T14:01:17.456Z,1.98
2022-08-22T14:03:49.829Z,1.75
2022-08-22T14:06:37.277Z,1.92
2022-08-22T14:09:29.427Z,2.35
2022-08-22T14:12:12.640Z,1.97
2022-08-22T14:14:46.126Z,1.90
2022-08-22T14:17:18.096Z,2.15
2022-08-22T14:19:59.762Z,2.42
2022-08-22T14:22:34.828Z,2.13
2022-08-22T14:25:10.360Z,1.90
2022-08-22T14:27:43.849Z,2.17
2022-08-22T14:30:18.884Z,2.50
2022-08-22T14:32:52.858Z,2.17
2022-08-22T14:35:34.647Z,2.10
2022-08-22T14:38:29.784Z,1.98
2022-08-22T14:41:05.351Z,2.38
2022-08-22T14:43:49.796Z,2.08
2022-08-22T14:46:27.713Z,2.17
2022-08-22T14:49:14.755Z,1.92
2022-08-22T14:51:50.850Z,2.13
2022-08-22T14:54:23.318Z,2.10
2022-08-22T14:57:01.292Z,2.10
2022-08-22T14:59:39.352Z,2.47
2022-08-22T15:02:13.849Z,1.95
2022-08-22T15:04:46.690Z,2.03
2022-08-22T15:07:24.157Z,2.20
2022-08-22T15:09:56.268Z,2.08
2022-08-22T15:12:30.638Z,2.03
2022-08-22T15:15:01.846Z,2.10
2022-08-22T15:17:35.538Z,2.20
2022-08-22T15:20:28.464Z,2.35
2022-08-22T15:23:01.583Z,2.20
2022-08-22T15:25:35.160Z,2.22
2022-08-22T15:28:14.168Z,1.98
2022-08-22T15:30:46.657Z,2.35
2022-08-22T15:33:24.556Z,2.10
2022-08-22T15:36:07.406Z,2.15
2022-08-22T15:38:40.443Z,2.30
2022-08-22T15:41:41.800Z,2.28
2022-08-22T15:44:32.596Z,2.30
2022-08-22T15:47:23.794Z,2.33
2022-08-22T15:49:58.272Z,2.03
2022-08-22T15:52:30.997Z,2.00
2022-08-22T15:55:22.897Z,2.30
2022-08-22T15:58:05.077Z,2.13
2022-08-22T16:00:43.441Z,2.30
2022-08-22T16:03:25.513Z,2.10
2022-08-22T16:05:58.763Z,2.15
2022-08-22T16:08:33.007Z,2.20
2022-08-22T16:14:22.367Z,2.25
2022-08-22T16:17:02.010Z,2.40
2022-08-22T16:19:31.805Z,2.30
2022-08-22T16:22:11.318Z,2.50
2022-08-22T16:25:06.577Z,2.35
2022-08-22T16:27:53.780Z,2.53
2022-08-22T16:30:36.082Z,2.05
2022-08-22T16:33:06.957Z,2.30
2022-08-22T16:36:25.577Z,2.60
2022-08-22T16:38:57.799Z,2.50
2022-08-22T16:41:30.288Z,2.50
2022-08-22T16:44:22.664Z,2.10
2022-08-22T16:46:53.949Z,2.25
2022-08-22T16:49:29.446Z,2.42
2022-08-22T16:52:33.409Z,2.08
2022-08-22T16:55:04.629Z,2.70
2022-08-22T16:57:59.406Z,2.38
2022-08-22T17:00:42.110Z,2.45
2022-08-22T17:03:19.609Z,2.30
2022-08-22T17:05:56.225Z,2.20
2022-08-22T17:08:42.258Z,2.20
2022-08-22T17:11:33.987Z,2.20
2022-08-22T17:14:17.542Z,2.42
2022-08-22T17:17:09.297Z,2.33
2022-08-22T17:23:20.658Z,1.98
2022-08-22T17:26:00.723Z,2.10
2022-08-22T17:28:40.269Z,2.45
2022-08-22T17:31:18.073Z,2.17
2022-08-22T17:34:12.121Z,2.20
2022-08-22T17:36:57.057Z,2.20
2022-08-22T17:39:39.130Z,2.17
2022-08-22T17:42:37.464Z,2.90
2022-08-22T17:45:18.111Z,2.20
2022-08-22T17:47:53.332Z,2.33
2022-08-22T17:50:28.026Z,2.17
2022-08-22T17:53:04.316Z,2.20
2022-08-22T17:55:39.939Z,2.25
2022-08-22T17:58:43.688Z,2.22
2022-08-22T18:01:16.381Z,2.10
2022-08-22T18:03:52.898Z,2.38
2022-08-22T18:06:25.898Z,2.17
2022-08-22T18:09:16.005Z,2.03
2022-08-22T18:11:51.347Z,2.30
2022-08-22T18:14:30.345Z,1.90
2022-08-22T18:17:00.899Z,2.08
2022-08-22T18:19:44.206Z,2.35
2022-08-22T18:22:20.674Z,2.33
2022-08-22T18:24:56.368Z,2.13
2022-08-22T18:27:35.242Z,2.22
2022-08-22T18:30:16.904Z,2.25
2022-08-22T18:32:56.371Z,2.15
2022-08-22T18:35:29.893Z,2.10
2022-08-22T18:38:12.202Z,2.22
2022-08-22T18:40:55.550Z,2.33
2022-08-22T18:43:36.190Z,2.40
2022-08-22T18:46:31.678Z,2.40
2022-08-22T18:49:17.798Z,2.60
2022-08-22T18:52:27.140Z,2.50
2022-08-22T18:55:19.284Z,2.25
2022-08-22T18:58:03.946Z,2.33
2022-08-22T19:01:04.136Z,2.50
2022-08-22T19:03:45.283Z,2.83
2022-08-22T19:06:37.920Z,2.53
2022-08-22T19:09:32.010Z,2.80
2022-08-22T19:12:08.115Z,2.70
2022-08-22T19:15:05.864Z,2.60
2022-08-22T19:17:58.960Z,2.70
2022-08-22T19:20:47.510Z,2.75
2022-08-22T19:23:50.175Z,2.80
2022-08-22T19:26:29.613Z,2.60
2022-08-22T19:29:00.367Z,2.83
2022-08-22T19:31:47.862Z,3.17
2022-08-22T19:34:38.683Z,2.72
2022-08-22T19:37:34.111Z,2.88
2022-08-22T19:40:06.112Z,3.03
2022-08-22T19:42:38.768Z,2.92
2022-08-22T19:45:19.583Z,2.70
2022-08-22T19:47:59.394Z,3.30
2022-08-22T19:50:34.016Z,2.97
2022-08-22T19:53:32.373Z,3.25
2022-08-22T19:56:12.723Z,3.20
2022-08-22T19:58:53.564Z,3.40
2022-08-22T20:01:37.035Z,3.13
2022-08-22T20:04:20.485Z,2.83
2022-08-22T20:06:59.209Z,3.05
2022-08-22T20:09:40.260Z,3.30
2022-08-22T20:12:15.964Z,3.58
2022-08-22T20:14:47.087Z,3.40
2022-08-22T20:17:39.599Z,3.40
2022-08-22T20:20:19.096Z,3.35
2022-08-22T20:22:55.470Z,3.60
2022-08-22T20:25:42.468Z,3.95
2022-08-22T20:28:30.849Z,3.53
2022-08-22T20:31:02.164Z,3.15
2022-08-22T20:33:37.099Z,3.55
2022-08-22T20:36:18.490Z,3.70
2022-08-22T20:39:01.632Z,3.65
2022-08-22T20:41:35.608Z,3.90
2022-08-22T20:44:13.258Z,3.55
2022-08-22T20:46:53.196Z,3.50
2022-08-22T20:49:25.012Z,3.95
2022-08-22T20:51:59.324Z,3.63
2022-08-22T20:54:30.137Z,3.28
2022-08-22T20:57:01.394Z,3.72
2022-08-22T20:59:35.665Z,3.70
2022-08-22T21:02:09.720Z,3.78
2022-08-22T21:04:53.727Z,3.30
2022-08-22T21:07:26.903Z,3.95
2022-08-22T21:10:20.286Z,3.65
2022-08-22T21:13:07.653Z,3.47
2022-08-22T21:15:38.278Z,3.40
2022-08-22T21:18:07.592Z,3.50
2022-08-22T21:20:38.558Z,3.70
2022-08-22T21:23:20.625Z,3.58
2022-08-22T21:25:58.094Z,3.78
2022-08-22T21:28:29.857Z,3.28
2022-08-22T21:30:58.951Z,3.85
2022-08-22T21:33:27.494Z,4.00
2022-08-22T21:35:58.396Z,3.45
2022-08-22T21:38:29.117Z,3.33
2022-08-22T21:41:05.250Z,3.58
2022-08-22T21:43:36.768Z,3.58
2022-08-22T21:46:06.901Z,3.70
2022-08-22T21:48:39.807Z,3.75
2022-08-22T21:51:42.774Z,3.47
2022-08-22T21:54:28.683Z,3.33
2022-08-22T21:56:59.817Z,3.47
2022-08-22T21:59:52.285Z,3.60
2022-08-22T22:02:37.137Z,3.80
2022-08-22T22:05:10.335Z,3.63
2022-08-22T22:07:41.959Z,3.50
2022-08-22T22:10:14.310Z,4.07
2022-08-22T22:12:44.094Z,3.90
2022-08-22T22:15:16.752Z,3.95
2022-08-22T22:17:45.405Z,3.92
2022-08-22T22:20:16.168Z,3.80
2022-08-22T22:22:46.216Z,3.70
2022-08-22T22:25:38.805Z,3.90
2022-08-22T22:28:10.104Z,3.78
2022-08-22T22:30:38.663Z,4.38
2022-08-22T22:33:07.146Z,4.00
2022-08-22T22:35:38.214Z,4.30
2022-08-22T22:38:07.628Z,4.20
2022-08-22T22:40:37.486Z,4.15
2022-08-22T22:43:06.402Z,3.75
2022-08-22T22:45:34.987Z,4.47
2022-08-22T22:48:03.822Z,4.20
2022-08-22T22:50:33.014Z,4.50
2022-08-22T22:53:01.439Z,4.05
2022-08-22T22:55:29.931Z,4.57
2022-08-22T22:58:01.477Z,4.43
2022-08-22T23:00:33.163Z,4.38
2022-08-22T23:03:04.504Z,4.70
2022-08-22T23:05:34.873Z,4.00
2022-08-22T23:08:04.486Z,4.38
2022-08-22T23:10:34.456Z,4.93
2022-08-22T23:13:06.429Z,3.97
2022-08-22T23:15:34.876Z,4.57
2022-08-22T23:18:03.313Z,4.55
2022-08-22T23:20:31.879Z,4.35
2022-08-22T23:23:00.519Z,4.40
2022-08-22T23:25:31.413Z,4.50
2022-08-22T23:28:00.195Z,4.53
2022-08-22T23:30:30.272Z,4.70
2022-08-22T23:32:58.767Z,4.30
2022-08-22T23:39:17.058Z,4.25
2022-08-22T23:41:46.750Z,5.18
2022-08-22T23:44:17.510Z,4.60
2022-08-22T23:46:48.095Z,4.60
2022-08-22T23:49:17.045Z,4.80
2022-08-22T23:51:46.865Z,5.07
2022-08-22T23:54:16.057Z,4.80
2022-08-22T23:56:47.972Z,4.35
2022-08-22T23:59:19.168Z,4.70
